Search for airport 
image banner adimage banner adimage banner ad
image banner ad

6CN6 - Kaiser Permanente South Sacramento

Located in Sacramento, United States

ICAO - 6CN6, IATA -

Data provided by Airmate  

General information

Coordinates: N38°28'11" W121°25'15"
Elevation is 28 feet MSL.
 
View others Airports in California

Operational data

Special qualification required
Current time UTC:
Current local time:
Weather at : KSAC - Sacramento Executive ( 8 km )
METAR: KSAC 240753Z AUTO 19005KT 10SM CLR 17/11 A2993 RMK AO2 SLP136 T01670106 403000144
TAF: KSAC 240520Z 2406/2506 21008KT P6SM SKC FM242200 21008G16KT P6SM FEW200
View NOTAMs / SUP AIP / TFR affecting this airport [VIEW]
Communications frequencies: [VIEW]

Runways:

Airport contact information

Address: Sacramento United States

Satellite view of 6CN6